Terminal Aerodrome Forecast
Issued by NWS Wichita, KS

Home | Current Version | Previous Version | Text Only | Print | Product List | Glossary Off
Versions: 1 2 3 4 5 6 7 8 9 10 11 12 13 14 15 16 17 18 19 20 21 22

000
FTUS43 KICT 240749 AAC
TAFICT
TAF AMD
KICT 240749Z 2408/2506 12014KT P6SM SCT080
     FM241100 13015KT P6SM SCT015 BKN025
      TEMPO 2411/2415 SCT009 BKN015
     FM241800 32016G24KT P6SM SCT030=

USA.gov is the U.S. government's official web portal to all federal, state and local government web resources and services.